createdAt,value
2018-02-06T00:00:05.352Z,-1.40
2018-02-06T00:02:32.807Z,-1.40
2018-02-06T00:05:00.244Z,-1.40
2018-02-06T00:07:27.724Z,-1.40
2018-02-06T00:09:55.187Z,-1.40
2018-02-06T00:12:22.632Z,-1.50
2018-02-06T00:14:50.404Z,-1.50
2018-02-06T00:17:17.853Z,-1.50
2018-02-06T00:19:45.289Z,-1.50
2018-02-06T00:22:14.611Z,-1.50
2018-02-06T00:24:42.048Z,-1.50
2018-02-06T00:27:10.248Z,-1.60
2018-02-06T00:29:38.012Z,-1.60
2018-02-06T00:32:05.451Z,-1.60
2018-02-06T00:34:32.884Z,-1.60
2018-02-06T00:37:01.165Z,-1.60
2018-02-06T00:39:28.624Z,-1.60
2018-02-06T00:41:56.825Z,-1.60
2018-02-06T00:44:24.524Z,-1.70
2018-02-06T00:46:51.959Z,-1.70
2018-02-06T00:49:19.406Z,-1.70
2018-02-06T00:51:46.884Z,-1.70
2018-02-06T00:54:14.312Z,-1.70
2018-02-06T00:56:41.748Z,-1.70
2018-02-06T00:59:10.160Z,-1.70
2018-02-06T01:01:37.563Z,-1.70
2018-02-06T01:04:05.084Z,-1.70
2018-02-06T01:06:32.520Z,-1.70
2018-02-06T01:09:00.009Z,-1.80
2018-02-06T01:11:27.441Z,-1.80
2018-02-06T01:13:54.975Z,-1.80
2018-02-06T01:16:23.164Z,-1.80
2018-02-06T01:18:50.665Z,-1.80
2018-02-06T01:21:18.404Z,-1.80
2018-02-06T01:23:45.869Z,-1.80
2018-02-06T01:26:13.315Z,-1.80
2018-02-06T01:28:40.785Z,-1.90
2018-02-06T01:31:08.212Z,-1.90
2018-02-06T01:33:35.726Z,-1.90
2018-02-06T01:36:03.346Z,-1.90
2018-02-06T01:38:30.812Z,-1.90
2018-02-06T01:40:58.475Z,-1.90
2018-02-06T01:43:25.912Z,-1.90
2018-02-06T01:45:53.349Z,-1.90
2018-02-06T01:48:21.544Z,-2.00
2018-02-06T01:50:49.012Z,-2.00
2018-02-06T01:53:16.427Z,-2.00
2018-02-06T01:55:44.640Z,-2.00
2018-02-06T01:58:12.093Z,-2.00
2018-02-06T02:00:39.521Z,-2.10
2018-02-06T02:03:07.719Z,-2.10
2018-02-06T02:05:35.293Z,-2.10
2018-02-06T02:08:02.701Z,-2.10
2018-02-06T02:10:30.208Z,-2.10
2018-02-06T02:12:57.671Z,-2.10
2018-02-06T02:15:25.103Z,-2.20
2018-02-06T02:17:52.579Z,-2.20
2018-02-06T02:20:20.029Z,-2.20
2018-02-06T02:22:47.459Z,-2.20
2018-02-06T02:25:15.691Z,-2.20
2018-02-06T02:27:43.236Z,-2.30
2018-02-06T02:30:10.700Z,-2.20
2018-02-06T02:32:38.136Z,-2.20
2018-02-06T02:35:05.584Z,-2.20
2018-02-06T02:37:33.053Z,-2.30
2018-02-06T02:40:00.459Z,-2.30
2018-02-06T04:40:33.659Z,-2.60
2018-02-06T04:43:01.092Z,-2.60
2018-02-06T04:45:28.534Z,-2.70
2018-02-06T04:47:55.989Z,-2.60
2018-02-06T04:50:23.448Z,-2.60
2018-02-06T04:52:50.969Z,-2.60
2018-02-06T04:55:19.181Z,-2.70
2018-02-06T04:57:46.620Z,-2.70
2018-02-06T05:00:14.111Z,-2.70
2018-02-06T05:02:41.583Z,-2.70
2018-02-06T05:05:09.029Z,-2.70
2018-02-06T05:07:36.468Z,-2.70
2018-02-06T05:10:03.925Z,-2.70
2018-02-06T05:12:31.358Z,-2.70
2018-02-06T05:14:58.857Z,-2.70
2018-02-06T05:17:26.313Z,-2.70
2018-02-06T05:19:53.761Z,-2.70
2018-02-06T05:22:21.195Z,-2.70
2018-02-06T05:24:48.654Z,-2.70
2018-02-06T05:27:16.121Z,-2.70
2018-02-06T05:29:43.524Z,-2.80
2018-02-06T05:32:10.996Z,-2.70
2018-02-06T05:34:38.423Z,-2.80
2018-02-06T05:37:05.863Z,-2.80
2018-02-06T05:39:33.407Z,-2.80
2018-02-06T05:42:00.844Z,-2.80
2018-02-06T05:44:28.328Z,-2.80
2018-02-06T05:46:55.833Z,-2.80
2018-02-06T05:49:23.265Z,-2.80
2018-02-06T05:51:50.792Z,-2.80
2018-02-06T05:54:18.249Z,-2.80
2018-02-06T05:56:45.711Z,-2.80
2018-02-06T05:59:13.182Z,-2.80
2018-02-06T06:01:40.620Z,-2.80
2018-02-06T06:04:08.083Z,-2.80
2018-02-06T06:06:35.519Z,-2.80
2018-02-06T06:09:02.995Z,-2.90
2018-02-06T06:11:30.424Z,-2.90
2018-02-06T06:13:58.608Z,-2.90
2018-02-06T06:16:26.096Z,-2.90
2018-02-06T06:18:53.524Z,-2.90
2018-02-06T06:21:20.961Z,-2.90
2018-02-06T06:23:49.175Z,-2.90
2018-02-06T06:26:16.627Z,-3.00
2018-02-06T06:28:44.091Z,-2.90
2018-02-06T06:31:11.538Z,-2.90
2018-02-06T06:33:38.968Z,-2.90
2018-02-06T06:36:07.169Z,-3.00
2018-02-06T06:38:34.669Z,-3.00
2018-02-06T06:41:02.189Z,-3.00
2018-02-06T06:43:29.616Z,-3.00
2018-02-06T06:45:57.836Z,-3.00
2018-02-06T06:48:25.284Z,-3.00
2018-02-06T06:50:52.724Z,-3.00
2018-02-06T06:53:20.172Z,-3.00
2018-02-06T06:55:47.605Z,-3.00
2018-02-06T06:58:15.870Z,-3.00
2018-02-06T07:00:43.383Z,-3.00
2018-02-06T07:03:10.796Z,-3.00
2018-02-06T07:05:39.017Z,-3.10
2018-02-06T07:08:06.476Z,-3.10
2018-02-06T07:10:33.911Z,-3.00
2018-02-06T07:13:01.391Z,-3.00
2018-02-06T07:15:28.852Z,-3.00
2018-02-06T07:17:56.297Z,-3.00
2018-02-06T07:20:26.420Z,-2.90
2018-02-06T07:22:53.873Z,-2.90
2018-02-06T07:25:21.299Z,-2.90
2018-02-06T07:27:49.504Z,-2.90
2018-02-06T07:30:16.943Z,-2.90
2018-02-06T07:32:44.376Z,-2.90
2018-02-06T07:35:12.608Z,-2.80
2018-02-06T07:37:40.058Z,-2.90
2018-02-06T07:40:07.508Z,-2.80
2018-02-06T07:42:35.020Z,-2.80
2018-02-06T07:45:02.470Z,-2.80
2018-02-06T07:47:29.909Z,-2.80
2018-02-06T07:49:57.344Z,-2.80
2018-02-06T07:52:24.808Z,-2.70
2018-02-06T07:54:52.252Z,-2.70
2018-02-06T07:57:19.740Z,-2.70
2018-02-06T07:59:47.190Z,-2.60
2018-02-06T08:02:14.668Z,-2.60
2018-02-06T08:04:42.196Z,-2.60
2018-02-06T08:07:09.745Z,-2.50
2018-02-06T08:09:37.159Z,-2.50
2018-02-06T08:12:05.383Z,-2.50
2018-02-06T08:14:32.837Z,-2.50
2018-02-06T08:17:00.272Z,-2.50
2018-02-06T08:19:27.756Z,-2.50
2018-02-06T08:21:55.308Z,-2.40
2018-02-06T08:24:22.747Z,-2.40
2018-02-06T08:26:50.228Z,-2.40
2018-02-06T08:29:17.787Z,-2.40
2018-02-06T08:31:45.224Z,-2.40
2018-02-06T08:34:12.700Z,-2.40
2018-02-06T08:36:40.196Z,-2.40
2018-02-06T08:39:07.715Z,-2.40
2018-02-06T08:41:35.179Z,-2.40
2018-02-06T08:44:02.622Z,-2.40
2018-02-06T08:46:30.068Z,-2.30
2018-02-06T08:48:57.640Z,-2.30
2018-02-06T08:51:25.312Z,-2.20
2018-02-06T08:53:52.758Z,-2.20
2018-02-06T08:56:20.186Z,-2.20
2018-02-06T08:58:48.493Z,-2.20
2018-02-06T09:01:15.907Z,-2.20
2018-02-06T09:03:44.139Z,-2.00
2018-02-06T09:06:11.801Z,-2.00
2018-02-06T09:08:39.242Z,-1.90
2018-02-06T09:11:06.656Z,-1.90
2018-02-06T09:13:34.996Z,-1.70
2018-02-06T09:16:02.433Z,-1.70
2018-02-06T09:18:29.904Z,-1.60
2018-02-06T09:20:57.347Z,-1.50
2018-02-06T09:23:24.785Z,-1.40
2018-02-06T09:25:52.208Z,-1.40
2018-02-06T09:28:19.656Z,-1.30
2018-02-06T09:30:47.098Z,-1.30
2018-02-06T09:33:14.550Z,-1.20
2018-02-06T09:35:42.310Z,-1.10
2018-02-06T09:38:09.740Z,-1.00
2018-02-06T09:40:37.163Z,-1.00
2018-02-06T09:43:05.385Z,-0.80
2018-02-06T09:45:32.841Z,-0.80
2018-02-06T09:48:01.032Z,-0.70
2018-02-06T09:50:28.490Z,-0.70
2018-02-06T09:52:55.968Z,-0.60
2018-02-06T09:55:23.502Z,-0.60
2018-02-06T09:57:50.989Z,-0.50
2018-02-06T10:00:18.413Z,-0.50
2018-02-06T10:02:45.859Z,-0.50
2018-02-06T10:05:13.319Z,-0.50
2018-02-06T10:07:40.784Z,-0.50
2018-02-06T10:10:08.250Z,-0.40
2018-02-06T10:12:35.708Z,-0.40
2018-02-06T10:15:03.145Z,-0.30
2018-02-06T10:17:30.576Z,-0.30
2018-02-06T10:19:58.783Z,-0.20
2018-02-06T10:22:26.233Z,-0.20
2018-02-06T10:24:53.647Z,-0.20
2018-02-06T10:27:21.863Z,0.00
2018-02-06T10:29:49.330Z,0.00
2018-02-06T10:32:16.757Z,0.10
2018-02-06T10:34:44.190Z,0.10
2018-02-06T10:37:11.611Z,0.10
2018-02-06T10:39:39.067Z,0.10
2018-02-06T10:42:06.611Z,0.20
2018-02-06T10:44:34.131Z,0.30
2018-02-06T10:47:01.532Z,0.30
2018-02-06T10:49:28.962Z,0.30
2018-02-06T10:51:56.383Z,0.40
2018-02-06T10:54:24.622Z,0.40
2018-02-06T10:56:52.066Z,0.40
2018-02-06T10:59:19.664Z,0.30
2018-02-06T11:01:47.134Z,0.30
2018-02-06T11:04:14.625Z,0.30
2018-02-06T11:06:42.104Z,0.30
2018-02-06T11:09:09.535Z,0.30
2018-02-06T11:11:36.976Z,0.30
2018-02-06T11:14:05.171Z,0.30
2018-02-06T11:16:32.592Z,0.30
2018-02-06T11:19:00.119Z,0.40
2018-02-06T11:21:27.572Z,0.40
2018-02-06T11:23:55.031Z,0.40
2018-02-06T11:26:22.483Z,0.50
2018-02-06T11:28:49.912Z,0.60
2018-02-06T11:31:17.331Z,0.70
2018-02-06T11:33:44.770Z,0.70
2018-02-06T11:36:12.202Z,0.80
2018-02-06T11:38:39.623Z,0.90
2018-02-06T11:41:07.843Z,1.00
2018-02-06T11:43:35.494Z,1.00
2018-02-06T11:46:02.895Z,1.00
2018-02-06T11:48:30.329Z,1.00
2018-02-06T11:50:58.562Z,1.20
2018-02-06T11:53:26.040Z,1.20
2018-02-06T11:55:53.613Z,1.40
2018-02-06T11:58:21.066Z,1.50
2018-02-06T12:00:48.521Z,1.50
2018-02-06T12:03:15.983Z,1.50
2018-02-06T12:05:43.413Z,1.50
2018-02-06T12:08:10.908Z,1.50
2018-02-06T12:10:38.447Z,1.70
2018-02-06T12:13:05.912Z,1.70
2018-02-06T12:15:33.344Z,1.80
2018-02-06T12:18:00.819Z,1.80
2018-02-06T12:20:28.274Z,1.80
2018-02-06T12:22:55.697Z,1.80
2018-02-06T12:25:23.900Z,1.80
2018-02-06T12:27:52.231Z,1.80
2018-02-06T12:30:19.842Z,1.80
2018-02-06T12:32:48.030Z,1.90
2018-02-06T12:35:15.577Z,1.90
2018-02-06T12:37:42.972Z,2.00
2018-02-06T12:40:10.409Z,2.00
2018-02-06T12:42:37.847Z,2.00
2018-02-06T12:45:05.274Z,2.00
2018-02-06T12:47:33.581Z,2.10
2018-02-06T12:50:01.143Z,2.10
2018-02-06T12:52:28.621Z,2.10
2018-02-06T12:54:56.055Z,2.10
2018-02-06T12:57:23.524Z,2.10
2018-02-06T12:59:51.011Z,2.10
2018-02-06T13:02:18.536Z,2.20
2018-02-06T13:04:45.964Z,2.30
2018-02-06T13:07:13.382Z,2.30
2018-02-06T13:09:41.005Z,2.30
2018-02-06T13:12:08.562Z,2.20
2018-02-06T13:14:36.019Z,2.10
2018-02-06T13:17:03.478Z,1.90
2018-02-06T13:19:30.944Z,1.80
2018-02-06T13:21:58.372Z,1.70
2018-02-06T13:24:25.798Z,1.70
2018-02-06T13:26:54.022Z,1.90
2018-02-06T13:29:21.423Z,1.90
2018-02-06T13:31:48.850Z,2.10
2018-02-06T13:34:16.276Z,2.20
2018-02-06T13:36:43.751Z,2.30
2018-02-06T13:39:12.047Z,2.40
2018-02-06T13:41:39.477Z,2.50
2018-02-06T13:44:06.895Z,2.50
2018-02-06T13:46:35.132Z,2.60
2018-02-06T13:49:03.080Z,2.60
2018-02-06T13:51:30.523Z,2.60
2018-02-06T13:53:58.110Z,2.60
2018-02-06T13:56:25.525Z,2.60
2018-02-06T13:58:53.707Z,2.70
2018-02-06T14:01:21.196Z,2.70
2018-02-06T14:03:48.627Z,2.90
2018-02-06T14:06:16.057Z,2.90
2018-02-06T14:08:44.260Z,3.00
2018-02-06T14:11:11.740Z,3.00
2018-02-06T14:13:39.168Z,3.00
2018-02-06T14:16:06.660Z,3.10
2018-02-06T14:18:34.205Z,3.10
2018-02-06T14:21:01.668Z,3.10
2018-02-06T14:23:29.129Z,3.00
2018-02-06T14:25:56.596Z,2.80
2018-02-06T14:28:24.036Z,2.70
2018-02-06T14:30:51.504Z,2.60
2018-02-06T14:33:18.932Z,2.50
2018-02-06T14:35:46.508Z,2.30
2018-02-06T14:38:19.447Z,2.20
2018-02-06T14:40:47.639Z,2.10
2018-02-06T14:43:15.132Z,2.10
2018-02-06T14:45:42.588Z,2.00
2018-02-06T14:48:10.018Z,2.00
2018-02-06T14:50:37.437Z,2.00
2018-02-06T14:53:04.971Z,1.90
2018-02-06T14:55:32.514Z,1.90
2018-02-06T14:57:59.916Z,1.80
2018-02-06T15:00:27.433Z,1.80
2018-02-06T15:02:55.002Z,1.80
2018-02-06T15:05:22.424Z,1.80
2018-02-06T15:07:49.864Z,1.80
2018-02-06T15:10:18.052Z,1.70
2018-02-06T15:12:45.565Z,1.70
2018-02-06T15:15:13.005Z,1.70
2018-02-06T15:17:40.427Z,1.70
2018-02-06T15:20:07.856Z,1.60
2018-02-06T15:22:35.368Z,1.60
2018-02-06T15:25:02.830Z,1.60
2018-02-06T15:27:30.284Z,1.50
2018-02-06T15:29:57.740Z,1.50
2018-02-06T15:32:25.196Z,1.50
2018-02-06T15:34:52.647Z,1.50
2018-02-06T15:37:20.064Z,1.50
2018-02-06T15:39:48.260Z,1.60
2018-02-06T15:42:15.744Z,1.60
2018-02-06T15:44:43.195Z,1.80
2018-02-06T15:47:10.621Z,1.90
2018-02-06T15:49:38.832Z,2.00
2018-02-06T15:52:06.308Z,2.00
2018-02-06T15:54:33.754Z,2.00
2018-02-06T15:57:01.220Z,1.80
2018-02-06T15:59:28.668Z,1.70
2018-02-06T16:01:56.168Z,1.50
2018-02-06T16:04:23.581Z,1.40
2018-02-06T16:06:51.037Z,1.30
2018-02-06T16:09:18.494Z,1.20
2018-02-06T16:11:45.947Z,1.10
2018-02-06T16:14:13.364Z,1.00
2018-02-06T16:16:41.576Z,0.80
2018-02-06T16:19:09.037Z,0.80
2018-02-06T16:21:36.464Z,0.70
2018-02-06T16:24:03.953Z,0.60
2018-02-06T16:26:31.430Z,0.60
2018-02-06T16:28:58.861Z,0.50
2018-02-06T16:31:26.319Z,0.40
2018-02-06T16:33:53.774Z,0.40
2018-02-06T16:36:21.207Z,0.30
2018-02-06T16:38:49.399Z,0.20
2018-02-06T16:41:16.828Z,0.20
2018-02-06T16:43:45.045Z,0.10
2018-02-06T16:46:12.516Z,0.10
2018-02-06T16:48:39.943Z,0.00
2018-02-06T16:51:07.376Z,0.00
2018-02-06T16:53:34.926Z,-0.10
2018-02-06T16:56:03.130Z,-0.10
2018-02-06T16:58:30.556Z,-0.10
2018-02-06T17:00:58.762Z,-0.20
2018-02-06T17:03:26.188Z,-0.20
2018-02-06T17:05:54.386Z,-0.30
2018-02-06T17:08:21.864Z,-0.30
2018-02-06T17:10:49.292Z,-0.30
2018-02-06T17:13:16.730Z,-0.30
2018-02-06T17:15:44.184Z,-0.40
2018-02-06T17:18:11.618Z,-0.40
2018-02-06T17:20:39.101Z,-0.40
2018-02-06T17:23:06.653Z,-0.40
2018-02-06T17:25:34.110Z,-0.40
2018-02-06T17:28:01.567Z,-0.50
2018-02-06T17:30:28.996Z,-0.50
2018-02-06T17:32:57.195Z,-0.50
2018-02-06T17:35:24.620Z,-0.50
2018-02-06T17:37:52.080Z,-0.60
2018-02-06T17:40:19.508Z,-0.60
2018-02-06T17:42:47.732Z,-0.60
2018-02-06T17:45:15.216Z,-0.60
2018-02-06T17:47:42.644Z,-0.60
2018-02-06T17:50:10.078Z,-0.60
2018-02-06T17:52:37.560Z,-0.60
2018-02-06T17:55:05.012Z,-0.70
2018-02-06T17:57:32.427Z,-0.70
2018-02-06T18:00:00.652Z,-0.80
2018-02-06T18:02:28.080Z,-0.70
2018-02-06T18:04:55.512Z,-0.80
2018-02-06T18:07:23.724Z,-0.80
2018-02-06T18:09:51.198Z,-0.80
2018-02-06T18:12:18.656Z,-0.80
2018-02-06T18:14:46.116Z,-0.90
2018-02-06T18:17:13.545Z,-0.90
2018-02-06T18:19:40.979Z,-0.90
2018-02-06T18:22:08.444Z,-0.90
2018-02-06T18:24:36.667Z,-1.00
2018-02-06T18:27:04.888Z,-1.00
2018-02-06T18:29:33.098Z,-1.00
2018-02-06T18:32:00.564Z,-1.00
2018-02-06T18:34:28.002Z,-1.00
2018-02-06T18:36:55.573Z,-1.10
2018-02-06T18:39:22.995Z,-1.00
2018-02-06T18:41:50.405Z,-1.10
2018-02-06T18:44:17.948Z,-1.10
2018-02-06T18:46:45.403Z,-1.10
2018-02-06T18:49:12.842Z,-1.10
2018-02-06T18:51:40.322Z,-1.10
2018-02-06T18:54:07.776Z,-1.20
2018-02-06T18:56:35.238Z,-1.20
2018-02-06T18:59:02.686Z,-1.20
2018-02-06T19:01:30.120Z,-0.60
2018-02-06T19:03:57.608Z,-1.20
2018-02-06T19:06:25.060Z,-1.30
2018-02-06T19:08:52.516Z,-1.20
2018-02-06T19:11:19.923Z,-1.30
2018-02-06T19:13:47.440Z,-1.30
2018-02-06T19:16:14.888Z,-1.30
2018-02-06T19:18:42.308Z,-1.30
2018-02-06T19:21:10.513Z,-1.40
2018-02-06T19:23:37.953Z,-1.40
2018-02-06T19:26:06.164Z,-1.40
2018-02-06T19:28:33.632Z,-1.50
2018-02-06T19:31:01.068Z,-1.40
2018-02-06T19:33:28.584Z,-1.50
2018-02-06T19:35:56.376Z,-1.40
2018-02-06T19:38:23.875Z,-1.50
2018-02-06T19:40:51.331Z,-1.50
2018-02-06T19:43:18.785Z,-1.50
2018-02-06T19:45:46.234Z,-1.50
2018-02-06T19:48:13.657Z,-1.50
2018-02-06T19:50:41.100Z,-1.50
2018-02-06T19:53:09.320Z,-1.60
2018-02-06T19:55:36.786Z,-1.60
2018-02-06T19:58:04.340Z,-1.60
2018-02-06T20:00:31.780Z,-1.60
2018-02-06T20:02:59.252Z,-1.60
2018-02-06T20:05:26.805Z,-1.60
2018-02-06T20:07:54.240Z,-1.60
2018-02-06T20:10:21.734Z,-1.60
2018-02-06T20:12:49.184Z,-1.70
2018-02-06T20:15:16.644Z,-1.70
2018-02-06T20:17:44.068Z,-1.70
2018-02-06T20:20:11.517Z,-1.70
2018-02-06T20:22:39.023Z,-1.70
2018-02-06T20:25:06.467Z,-1.70
2018-02-06T20:27:34.024Z,-1.70
2018-02-06T20:30:01.452Z,-1.70
2018-02-06T20:32:28.884Z,-1.80
2018-02-06T20:34:57.112Z,-1.80
2018-02-06T20:37:24.541Z,-1.80
2018-02-06T20:39:51.976Z,-1.80
2018-02-06T20:42:20.190Z,-1.90
2018-02-06T20:44:47.616Z,-1.90
2018-02-06T20:47:15.056Z,-1.90
2018-02-06T20:49:42.516Z,-1.80
2018-02-06T20:52:09.950Z,-1.90
2018-02-06T20:54:37.432Z,-1.90
2018-02-06T20:57:04.968Z,-1.90
2018-02-06T20:59:32.448Z,-1.90
2018-02-06T21:01:59.875Z,-1.90
2018-02-06T21:04:27.353Z,-1.90
2018-02-06T21:06:54.816Z,-2.00
2018-02-06T21:09:22.275Z,-2.00
2018-02-06T21:11:49.724Z,-2.00
2018-02-06T21:14:17.160Z,-2.00
2018-02-06T21:16:44.588Z,-2.00
2018-02-06T21:19:12.108Z,-2.10
2018-02-06T21:21:39.541Z,-2.00
2018-02-06T21:24:06.989Z,-2.00
2018-02-06T21:26:34.427Z,-2.10
2018-02-06T21:29:02.642Z,-2.10
2018-02-06T21:31:30.128Z,-2.10
2018-02-06T21:33:57.571Z,-2.10
2018-02-06T21:36:25.115Z,-2.10
2018-02-06T21:38:52.580Z,-2.10
2018-02-06T21:41:20.132Z,-2.10
2018-02-06T21:43:47.532Z,-2.10
2018-02-06T21:46:15.074Z,-2.20
2018-02-06T21:48:42.617Z,-2.20
2018-02-06T21:51:10.049Z,-2.20
2018-02-06T21:53:37.532Z,-2.20
2018-02-06T21:56:05.084Z,-2.20
2018-02-06T21:58:32.549Z,-2.20
2018-02-06T22:00:59.980Z,-2.20
2018-02-06T22:03:27.460Z,-2.30
2018-02-06T22:05:54.907Z,-2.20
2018-02-06T22:08:22.375Z,-2.30
2018-02-06T22:10:49.836Z,-2.30
2018-02-06T22:13:17.293Z,-2.30
2018-02-06T22:15:44.732Z,-2.30
2018-02-06T22:18:12.188Z,-2.30
2018-02-06T22:20:39.668Z,-2.30
2018-02-06T22:23:07.212Z,-2.30
2018-02-06T22:25:34.696Z,-2.30
2018-02-06T22:28:02.129Z,-2.40
2018-02-06T22:30:29.596Z,-2.40
2018-02-06T22:32:57.045Z,-2.40
2018-02-06T22:35:24.512Z,-2.40
2018-02-06T22:37:51.964Z,-2.40
2018-02-06T22:40:19.516Z,-2.40
2018-02-06T22:42:46.971Z,-2.40
2018-02-06T22:45:14.546Z,-2.40
2018-02-06T22:47:42.712Z,-2.40
2018-02-06T22:50:10.181Z,-2.50
2018-02-06T22:52:38.664Z,-2.40
2018-02-06T22:55:06.107Z,-2.40
2018-02-06T22:57:33.545Z,-2.50
2018-02-06T23:00:01.024Z,-2.50
2018-02-06T23:02:28.480Z,-2.50
2018-02-06T23:04:55.908Z,-2.50
2018-02-06T23:07:23.340Z,-2.50
2018-02-06T23:09:51.587Z,-2.50
2018-02-06T23:12:19.020Z,-2.50
2018-02-06T23:14:46.553Z,-2.50
2018-02-06T23:17:14.137Z,-2.50
2018-02-06T23:19:41.560Z,-2.50
2018-02-06T23:22:09.765Z,-2.60
2018-02-06T23:24:37.236Z,-2.60
2018-02-06T23:27:04.753Z,-2.60
2018-02-06T23:29:32.939Z,-2.60
2018-02-06T23:32:00.428Z,-2.60
2018-02-06T23:34:28.032Z,-2.60
2018-02-06T23:36:55.455Z,-2.60
2018-02-06T23:39:22.884Z,-2.60
2018-02-06T23:41:50.352Z,-2.60
2018-02-06T23:44:17.791Z,-2.60
2018-02-06T23:46:45.227Z,-2.60
2018-02-06T23:49:13.424Z,-2.70
2018-02-06T23:51:40.852Z,-2.70
2018-02-06T23:54:09.065Z,-2.70
2018-02-06T23:56:36.496Z,-2.70
2018-02-06T23:59:04.693Z,-2.70
